MSC Vanessa — HOWD — position and weather

sailwx.info

Track history (hours):
 
Tides and Currents Weather Stations Pressure Air Temp Water Temp Dewpoint Dewpoint Depression Visibility Wind Speed Wind Dir Waves Ship Positions

MSC Vanessa

Last reported at 2017-Nov-14 23:32 UTC. Time now 2017-Nov-18 06:37 UTC.
Position S 26°21' W 047°21'.

Length 300 m; draft 9.2 m.

Type: Cargo ship. MMSI: 356946000.

Date/timePositionNaut miles runAvg speedWind from/ knotsBaromVisibWave heightAir tempDewpointWater temp
2017-Nov-14 23:32S 26°21' W 047°21'123.0
2017-Nov-14 23:30S 26°20' W 047°21'1323.0
2017-Nov-14 22:56S 26°08' W 047°16'1022.9
2017-Nov-14 22:30S 25°59' W 047°12'1122.8
2017-Nov-14 22:00S 25°48' W 047°07'1222.8
2017-Nov-14 21:30S 25°38' W 047°03'1122.7
2017-Nov-14 21:00S 25°27' W 046°58'1122.6
2017-Nov-14 20:30S 25°17' W 046°53'1222.7
2017-Nov-14 19:59S 25°06' W 046°49'1122.7
2017-Nov-14 19:30S 24°55' W 046°44'1122.7
2017-Nov-14 19:00S 24°45' W 046°40'1122.6
2017-Nov-14 18:30S 24°34' W 046°36'1122.6
2017-Nov-14 18:00S 24°24' W 046°31'1122.0
2017-Nov-14 17:31S 24°13' W 046°27'1019.2
2017-Nov-14 17:00S 24°05' W 046°22'611.0
2017-Nov-14 16:30S 23°60' W 046°20'3 5.3
2017-Nov-14 16:00S 23°58' W 046°18'46 1.2
2017-Nov-13 02:01S 24°17' W 045°32'1020.4
2017-Nov-13 01:30S 24°15' W 045°21'1019.8
2017-Nov-13 01:00S 24°13' W 045°11'918.8
2017-Nov-13 00:30S 24°11' W 045°01'2 3.7
2017-Nov-13 00:00S 24°10' W 044°59'0 0.5
2017-Nov-12 23:30S 24°10' W 044°58'1 1.3
2017-Nov-12 23:00S 24°11' W 044°58'1 2.2
2017-Nov-12 22:31S 24°10' W 044°57'918.0
2017-Nov-12 22:00S 24°07' W 044°48'1019.2
2017-Nov-12 21:30S 24°04' W 044°38'919.1
2017-Nov-12 21:01S 24°03' W 044°28'918.8
2017-Nov-12 20:30S 23°60' W 044°18'918.6
2017-Nov-12 20:00S 23°57' W 044°08'918.5
2017-Nov-12 19:30S 23°54' W 043°58'918.5
2017-Nov-12 19:00S 23°51' W 043°49'918.5
2017-Nov-12 18:30S 23°49' W 043°39'  
2017-Nov-05 13:10N 14°07' W 060°39'320.1
2017-Nov-05 13:00N 14°08' W 060°42'1020.0
2017-Nov-05 12:31N 14°13' W 060°51'1019.2
2017-Nov-05 12:01N 14°17' W 060°60'918.7
2017-Nov-05 11:31N 14°19' W 061°09'1019.7
2017-Nov-05 11:01N 14°22' W 061°19'1020.0
2017-Nov-05 10:30N 14°25' W 061°29'  
Track history (hours):
 
Tides and Currents Weather Stations Pressure Air Temp Water Temp Dewpoint Dewpoint Depression Visibility Wind Speed Wind Dir Waves Ship Positions

MSC Vanessa

Last reported at 2017-Nov-14 23:32 UTC. Time now 2017-Nov-18 06:37 UTC.
Position S 26°21' W 047°21'.

Length 300 m; draft 9.2 m.

Type: Cargo ship. MMSI: 356946000.

Date/timePositionNaut miles runAvg speedWind from/ knotsBaromVisibWave heightAir tempDewpointWater temp
2017-Nov-14 23:32S 26°21' W 047°21'123.0
2017-Nov-14 23:30S 26°20' W 047°21'1323.0
2017-Nov-14 22:56S 26°08' W 047°16'1022.9
2017-Nov-14 22:30S 25°59' W 047°12'1122.8
2017-Nov-14 22:00S 25°48' W 047°07'1222.8
2017-Nov-14 21:30S 25°38' W 047°03'1122.7
2017-Nov-14 21:00S 25°27' W 046°58'1122.6
2017-Nov-14 20:30S 25°17' W 046°53'1222.7
2017-Nov-14 19:59S 25°06' W 046°49'1122.7
2017-Nov-14 19:30S 24°55' W 046°44'1122.7
2017-Nov-14 19:00S 24°45' W 046°40'1122.6
2017-Nov-14 18:30S 24°34' W 046°36'1122.6
2017-Nov-14 18:00S 24°24' W 046°31'1122.0
2017-Nov-14 17:31S 24°13' W 046°27'1019.2
2017-Nov-14 17:00S 24°05' W 046°22'611.0
2017-Nov-14 16:30S 23°60' W 046°20'3 5.3
2017-Nov-14 16:00S 23°58' W 046°18'46 1.2
2017-Nov-13 02:01S 24°17' W 045°32'1020.4
2017-Nov-13 01:30S 24°15' W 045°21'1019.8
2017-Nov-13 01:00S 24°13' W 045°11'918.8
2017-Nov-13 00:30S 24°11' W 045°01'2 3.7
2017-Nov-13 00:00S 24°10' W 044°59'0 0.5
2017-Nov-12 23:30S 24°10' W 044°58'1 1.3
2017-Nov-12 23:00S 24°11' W 044°58'1 2.2
2017-Nov-12 22:31S 24°10' W 044°57'918.0
2017-Nov-12 22:00S 24°07' W 044°48'1019.2
2017-Nov-12 21:30S 24°04' W 044°38'919.1
2017-Nov-12 21:01S 24°03' W 044°28'918.8
2017-Nov-12 20:30S 23°60' W 044°18'918.6
2017-Nov-12 20:00S 23°57' W 044°08'918.5
2017-Nov-12 19:30S 23°54' W 043°58'918.5
2017-Nov-12 19:00S 23°51' W 043°49'918.5
2017-Nov-12 18:30S 23°49' W 043°39'  
2017-Nov-05 13:10N 14°07' W 060°39'320.1
2017-Nov-05 13:00N 14°08' W 060°42'1020.0
2017-Nov-05 12:31N 14°13' W 060°51'1019.2
2017-Nov-05 12:01N 14°17' W 060°60'918.7
2017-Nov-05 11:31N 14°19' W 061°09'1019.7
2017-Nov-05 11:01N 14°22' W 061°19'1020.0
2017-Nov-05 10:30N 14°25' W 061°29'  

Dump ship's entire track history